Time;durP1;ratioP1;P1;durP2;ratioP2;P2;SDS_P1;SDS_P2;PMS_P1;PMS_P2;Temp;Humidity;BMP_temperature;BMP_pressure;BME280_temperature;BME280_humidity;BME280_pressure;Samples;Min_cycle;Max_cycle;Signal;HPM_P1;HPM_P2
2021/04/16 00:00:07;;;;;;;14.18;8.08;;;;;;;11.42;65.11;99965.06;1773324;78;21606;-54
2021/04/16 00:02:37;;;;;;;11.22;7.12;;;;;;;11.35;65.27;99968.73;1769541;79;21243;-55
2021/04/16 00:05:07;;;;;;;11.50;7.17;;;;;;;11.39;65.28;99970.61;1772537;78;21193;-55
2021/04/16 00:07:35;;;;;;;10.20;7.03;;;;;;;11.49;65.17;99965.67;1763999;80;21136;-54
2021/04/16 00:10:07;;;;;;;10.48;7.00;;;;;;;11.60;65.02;99964.72;1764737;80;21124;-54
2021/04/16 00:12:35;;;;;;;12.15;7.70;;;;;;;11.68;64.85;99967.95;1732690;80;21167;-54
2021/04/16 00:15:08;;;;;;;12.43;7.90;;;;;;;11.68;64.72;99973.22;1771896;80;21158;-55
2021/04/16 00:17:37;;;;;;;10.35;7.12;;;;;;;11.62;64.78;99972.48;1740800;80;21983;-54
2021/04/16 00:20:10;;;;;;;12.18;7.83;;;;;;;11.53;64.87;99963.13;1762649;80;21161;-55
2021/04/16 00:22:38;;;;;;;12.10;6.65;;;;;;;11.51;64.97;99967.67;1770678;80;21724;-54
2021/04/16 00:25:11;;;;;;;10.58;6.35;;;;;;;11.55;64.90;99971.35;1766943;80;21187;-54
2021/04/16 00:27:40;;;;;;;9.43;6.42;;;;;;;11.53;64.80;99972.34;1766294;80;21136;-54
2021/04/16 00:30:09;;;;;;;8.48;5.50;;;;;;;11.45;64.90;99975.33;1768081;80;21201;-55
2021/04/16 00:32:38;;;;;;;8.88;5.22;;;;;;;11.35;65.04;99970.05;1760510;80;21147;-55
2021/04/16 00:35:09;;;;;;;9.43;5.35;;;;;;;11.36;65.15;99976.97;1764344;80;21610;-55
2021/04/16 00:37:38;;;;;;;9.95;5.37;;;;;;;11.47;64.82;99978.66;1766675;80;21104;-55
2021/04/16 00:40:11;;;;;;;9.85;6.05;;;;;;;11.51;64.59;99977.39;1761089;80;21096;-54
2021/04/16 00:42:39;;;;;;;9.45;5.67;;;;;;;11.48;64.58;99969.30;1764510;80;21210;-54
2021/04/16 00:45:08;;;;;;;8.93;5.70;;;;;;;11.46;64.62;99968.58;1762461;80;21091;-54
2021/04/16 00:47:35;;;;;;;8.35;5.00;;;;;;;11.43;64.62;99966.71;1747499;80;21187;-54
2021/04/16 00:50:13;;;;;;;9.30;5.08;;;;;;;11.43;64.59;99968.02;1759998;80;21175;-54
2021/04/16 00:52:42;;;;;;;9.80;5.55;;;;;;;11.43;64.52;99972.83;1765699;80;21103;-56
2021/04/16 00:55:23;;;;;;;7.97;4.20;;;;;;;11.40;64.50;99970.47;1726838;81;21128;-55
2021/04/16 00:57:52;;;;;;;7.37;4.55;;;;;;;11.41;64.43;99968.16;1718106;81;21116;-55
2021/04/16 01:00:21;;;;;;;8.00;4.53;;;;;;;11.46;64.31;99969.89;1705013;82;21123;-55
2021/04/16 01:02:50;;;;;;;7.60;4.72;;;;;;;11.45;64.36;99975.33;1729511;81;21175;-55
2021/04/16 01:05:20;;;;;;;7.83;4.40;;;;;;;11.40;64.58;99977.05;1733251;81;21207;-55
2021/04/16 01:07:51;;;;;;;7.92;4.30;;;;;;;11.31;64.76;99976.09;1727685;81;21214;-55
2021/04/16 01:10:21;;;;;;;8.40;5.03;;;;;;;11.24;65.04;99981.53;1703157;82;21200;-56
2021/04/16 01:12:50;;;;;;;6.50;3.85;;;;;;;11.17;65.25;99978.28;1705740;82;21635;-55
2021/04/16 01:15:28;;;;;;;7.03;3.65;;;;;;;11.11;65.39;99975.23;1683397;81;21132;-55
2021/04/16 01:17:53;;;;;;;8.05;3.70;;;;;;;11.08;65.50;99978.63;1728897;81;21207;-55
2021/04/16 01:20:30;;;;;;;7.47;3.60;;;;;;;11.01;65.63;99978.33;1723353;81;21206;-55
2021/04/16 01:23:44;;;;;;;7.58;3.87;;;;;;;11.01;65.63;99974.84;1704795;82;21605;-55
2021/04/16 01:26:16;;;;;;;6.33;3.12;;;;;;;11.09;65.56;99975.00;1724797;81;21187;-55
2021/04/16 01:28:45;;;;;;;8.43;3.80;;;;;;;11.17;65.43;99968.58;1721385;81;21209;-55
2021/04/16 01:31:17;;;;;;;7.10;3.60;;;;;;;11.15;65.30;99971.34;1731923;81;21179;-56
2021/04/16 01:33:46;;;;;;;6.72;3.40;;;;;;;11.09;65.37;99968.42;1702753;82;21177;-56
2021/04/16 01:36:27;;;;;;;7.30;3.40;;;;;;;11.03;65.58;99967.17;1705651;82;21194;-55
2021/04/16 01:38:55;;;;;;;7.85;4.15;;;;;;;10.99;65.59;99972.84;1705814;81;21182;-55
2021/04/16 01:41:25;;;;;;;6.37;3.20;;;;;;;10.93;65.77;99964.52;1727970;81;21190;-55
2021/04/16 01:44:03;;;;;;;6.55;3.17;;;;;;;10.94;65.73;99966.66;1705911;82;21258;-55
2021/04/16 01:46:58;;;;;;;6.35;2.37;;;;;;;10.98;65.59;99970.70;1728063;81;21219;-56
2021/04/16 01:49:30;;;;;;;7.67;3.37;;;;;;;11.07;65.37;99973.00;1731423;81;21222;-55
2021/04/16 01:51:58;;;;;;;6.45;3.33;;;;;;;11.08;65.15;99972.04;1698846;81;21226;-55
2021/04/16 01:54:32;;;;;;;6.08;3.00;;;;;;;11.02;65.37;99965.99;1710532;82;21199;-55
2021/04/16 01:57:06;;;;;;;5.90;3.20;;;;;;;10.96;65.47;99966.88;1732672;81;21572;-55
2021/04/16 01:59:38;;;;;;;6.78;3.42;;;;;;;10.89;65.58;99964.91;1736546;81;21230;-55
2021/04/16 02:02:07;;;;;;;6.30;2.85;;;;;;;10.82;65.82;99961.17;1739067;80;21206;-55
2021/04/16 02:04:36;;;;;;;5.87;2.90;;;;;;;10.75;65.93;99963.01;1735933;80;21207;-55
2021/04/16 02:07:05;;;;;;;6.50;3.37;;;;;;;10.65;66.19;99970.53;1771174;79;21813;-55
2021/04/16 02:09:36;;;;;;;6.37;2.80;;;;;;;10.54;66.46;99964.41;1741269;80;21680;-55
2021/04/16 02:12:08;;;;;;;7.10;2.95;;;;;;;10.54;66.65;99964.41;1766070;79;21370;-55
2021/04/16 02:14:37;;;;;;;6.05;2.98;;;;;;;10.62;66.56;99960.27;1760455;80;21526;-55
2021/04/16 02:17:09;;;;;;;5.78;3.05;;;;;;;10.68;66.50;99961.89;1764581;79;21629;-55
2021/04/16 02:19:37;;;;;;;6.05;3.58;;;;;;;10.71;66.49;99963.44;1761713;79;21203;-55
2021/04/16 02:22:07;;;;;;;7.87;3.47;;;;;;;10.71;66.50;99959.00;1769758;79;21131;-56
2021/04/16 02:24:34;;;;;;;5.83;3.08;;;;;;;10.68;66.54;99962.37;1760333;79;21367;-55
2021/04/16 02:27:01;;;;;;;6.37;3.10;;;;;;;10.63;66.70;99959.32;1761588;79;21799;-55
2021/04/16 02:29:29;;;;;;;6.67;3.40;;;;;;;10.54;66.94;99972.30;1763552;79;21143;-55
2021/04/16 02:31:57;;;;;;;7.60;3.33;;;;;;;10.39;67.29;99967.05;1768603;79;21148;-55
2021/04/16 02:34:27;;;;;;;6.90;3.55;;;;;;;10.28;67.49;99967.10;1762139;80;21167;-56
2021/04/16 02:37:02;;;;;;;8.88;3.55;;;;;;;10.29;67.64;99966.97;1761713;79;21212;-55
2021/04/16 02:39:30;;;;;;;7.83;3.33;;;;;;;10.40;67.42;99972.64;1739620;79;21234;-55
2021/04/16 02:41:57;;;;;;;7.15;2.92;;;;;;;10.47;67.37;99971.14;1770879;79;21137;-55
2021/04/16 02:44:27;;;;;;;6.28;3.27;;;;;;;10.48;67.40;99970.20;1764553;79;21678;-55
2021/04/16 02:46:55;;;;;;;6.65;3.85;;;;;;;10.51;67.21;99969.11;1769387;79;21566;-56
2021/04/16 02:49:24;;;;;;;7.25;3.75;;;;;;;10.49;67.24;99975.81;1770004;79;21182;-56
2021/04/16 02:51:52;;;;;;;6.87;3.52;;;;;;;10.51;67.15;99967.30;1762857;79;21172;-55
2021/04/16 02:54:20;;;;;;;5.62;2.83;;;;;;;10.54;67.11;99968.36;1745539;80;21111;-56
2021/04/16 02:56:49;;;;;;;7.15;3.20;;;;;;;10.58;66.88;99970.23;1737728;80;21245;-55
2021/04/16 02:59:20;;;;;;;6.05;3.22;;;;;;;10.62;66.65;99970.80;1713770;81;21227;-55
2021/04/16 03:01:48;;;;;;;6.65;3.00;;;;;;;10.68;66.42;99970.27;1752034;80;21209;-56
2021/04/16 03:04:15;;;;;;;6.62;3.60;;;;;;;10.72;66.32;99971.16;1756099;80;21203;-57
2021/04/16 03:06:43;;;;;;;8.65;3.65;;;;;;;10.72;66.30;99972.98;1727730;80;21640;-56
2021/04/16 03:09:11;;;;;;;5.85;2.98;;;;;;;10.69;66.32;99971.92;1757069;80;21210;-56
2021/04/16 03:11:38;;;;;;;6.12;3.12;;;;;;;10.68;66.39;99968.96;1762765;80;21148;-53
2021/04/16 03:14:06;;;;;;;6.97;3.12;;;;;;;10.66;66.27;99970.41;1755010;80;21215;-56
2021/04/16 03:16:33;;;;;;;7.85;4.00;;;;;;;10.60;66.30;99966.48;1736664;81;21203;-58
2021/04/16 03:19:03;;;;;;;7.00;3.20;;;;;;;10.52;66.54;99972.92;1756758;80;21135;-58
2021/04/16 03:21:30;;;;;;;7.62;3.22;;;;;;;10.49;66.63;99969.23;1755171;80;21571;-61
2021/04/16 03:23:57;;;;;;;5.70;2.80;;;;;;;10.48;66.79;99970.20;1729321;81;21752;-56
2021/04/16 03:26:25;;;;;;;6.00;3.02;;;;;;;10.48;66.63;99972.83;1760128;80;21325;-56
2021/04/16 03:28:55;;;;;;;5.70;2.83;;;;;;;10.55;66.47;99975.76;1731616;81;21149;-56
2021/04/16 03:31:24;;;;;;;6.72;3.33;;;;;;;10.63;66.34;99975.11;1724870;81;21215;-56
2021/04/16 03:33:53;;;;;;;6.55;3.10;;;;;;;10.67;66.19;99974.69;1753519;80;21192;-56
2021/04/16 03:36:21;;;;;;;6.90;3.05;;;;;;;10.72;66.11;99966.39;1757214;80;21127;-56
2021/04/16 03:38:49;;;;;;;5.42;2.75;;;;;;;10.73;65.97;99973.34;1758807;80;23540;-56
2021/04/16 03:41:16;;;;;;;7.03;3.00;;;;;;;10.71;65.91;99973.47;1730280;81;21190;-55
2021/04/16 03:43:44;;;;;;;5.10;2.60;;;;;;;10.73;65.77;99975.97;1751515;80;21179;-54
2021/04/16 03:46:12;;;;;;;6.05;3.35;;;;;;;10.67;65.73;99976.00;1759534;80;21119;-55
2021/04/16 03:48:39;;;;;;;6.78;2.87;;;;;;;10.61;65.84;99985.77;1759813;80;21130;-55
2021/04/16 03:51:08;;;;;;;5.17;2.62;;;;;;;10.55;65.98;99987.11;1757171;80;21209;-55
2021/04/16 03:53:38;;;;;;;5.17;2.55;;;;;;;10.54;65.99;99980.20;1762634;80;21229;-54
2021/04/16 03:56:07;;;;;;;5.50;2.55;;;;;;;10.60;65.84;99986.72;1737469;80;21246;-55
2021/04/16 03:58:37;;;;;;;4.92;2.50;;;;;;;10.65;65.76;99981.89;1741233;81;21168;-54
2021/04/16 04:01:05;;;;;;;5.75;3.02;;;;;;;10.68;65.92;99983.44;1726833;81;21208;-58
2021/04/16 04:03:34;;;;;;;6.67;3.60;;;;;;;10.73;65.75;99981.23;1698883;81;21183;-56
2021/04/16 04:06:05;;;;;;;7.67;3.50;;;;;;;10.77;65.67;99991.33;1752893;80;21174;-56
2021/04/16 04:08:34;;;;;;;5.45;2.90;;;;;;;10.79;65.50;99991.20;1753605;80;21116;-56
2021/04/16 04:11:03;;;;;;;6.17;3.20;;;;;;;10.75;65.42;99984.06;1730088;81;21155;-56
2021/04/16 04:13:30;;;;;;;6.28;2.90;;;;;;;10.75;65.46;99985.87;1694793;81;21201;-56
2021/04/16 04:16:01;;;;;;;5.15;2.77;;;;;;;10.72;65.74;99992.71;1728071;81;21211;-56
2021/04/16 04:18:29;;;;;;;6.25;2.90;;;;;;;10.72;65.76;99986.95;1769769;79;21672;-55
2021/04/16 04:23:26;;;;;;;4.92;2.47;;;;;;;10.78;65.66;99989.56;1757003;79;22228;-56
2021/04/16 04:25:55;;;;;;;6.33;3.08;;;;;;;10.84;65.83;99993.44;1739470;82;21212;-57
2021/04/16 04:28:22;;;;;;;7.22;3.35;;;;;;;10.92;65.45;99990.48;1738275;82;21189;-56
2021/04/16 04:30:50;;;;;;;6.42;3.30;;;;;;;10.94;65.52;100003.05;1734683;82;21196;-56
2021/04/16 04:33:19;;;;;;;6.35;3.20;;;;;;;10.84;65.72;99996.89;1694142;83;21107;-56
2021/04/16 04:35:47;;;;;;;6.80;3.10;;;;;;;10.75;66.23;100004.30;1641323;85;21270;-56
2021/04/16 04:38:14;;;;;;;26.05;12.63;;;;;;;10.65;66.42;100001.62;1682954;83;21228;-57
2021/04/16 04:40:41;;;;;;;33.83;13.95;;;;;;;10.59;66.76;100000.82;1693050;84;21423;-57
2021/04/16 04:43:09;;;;;;;18.17;8.13;;;;;;;10.51;66.93;100004.13;1702526;82;21844;-57
2021/04/16 04:45:37;;;;;;;10.78;4.62;;;;;;;10.45;67.20;99999.39;1703802;83;21179;-57
2021/04/16 04:48:06;;;;;;;9.28;4.62;;;;;;;10.42;67.30;100000.95;1697532;84;21227;-56
2021/04/16 04:50:34;;;;;;;9.93;3.83;;;;;;;10.45;67.47;99999.88;1673522;84;21164;-59
2021/04/16 04:53:01;;;;;;;5.80;2.90;;;;;;;10.56;67.46;100001.11;1694450;82;21447;-57
2021/04/16 04:55:31;;;;;;;6.87;3.20;;;;;;;10.65;67.09;100002.11;1692884;84;21155;-57
2021/04/16 04:57:59;;;;;;;6.55;3.50;;;;;;;10.65;66.74;100002.11;1695573;83;21235;-56
2021/04/16 05:00:27;;;;;;;6.03;3.30;;;;;;;10.62;66.91;100003.69;1658242;84;21630;-57
2021/04/16 05:02:55;;;;;;;5.90;3.02;;;;;;;10.58;67.03;99994.73;1688982;84;21155;-57
2021/04/16 05:05:24;;;;;;;6.47;3.22;;;;;;;10.59;66.96;99995.10;1701781;83;21362;-57
2021/04/16 05:07:54;;;;;;;7.47;3.42;;;;;;;10.58;66.90;99995.23;1689934;84;21566;-56
2021/04/16 05:10:22;;;;;;;5.50;2.95;;;;;;;10.56;66.87;99997.17;1696386;83;21246;-58
2021/04/16 05:12:49;;;;;;;6.60;3.70;;;;;;;10.56;67.00;99998.48;1686721;84;21213;-57
2021/04/16 05:15:18;;;;;;;6.95;3.45;;;;;;;10.55;66.68;99995.00;1664159;84;21667;-56
2021/04/16 05:17:45;;;;;;;7.00;2.90;;;;;;;10.58;66.77;99997.37;1668130;84;22396;-57
2021/04/16 05:20:13;;;;;;;5.90;3.12;;;;;;;10.67;66.63;99997.55;1686337;84;21140;-57
2021/04/16 05:22:41;;;;;;;6.87;3.15;;;;;;;10.73;66.65;100001.80;1693046;83;21183;-57
2021/04/16 05:25:09;;;;;;;6.25;3.72;;;;;;;10.80;66.56;100001.27;1651080;85;21193;-57
2021/04/16 05:27:37;;;;;;;8.88;3.95;;;;;;;10.78;66.63;99998.77;1675284;85;21804;-56
2021/04/16 05:30:07;;;;;;;6.75;3.50;;;;;;;10.77;66.72;100000.55;1671519;85;21282;-59
2021/04/16 05:32:34;;;;;;;8.40;2.98;;;;;;;10.76;66.89;99996.27;1714277;82;21525;-59
2021/04/16 05:35:03;;;;;;;5.87;3.05;;;;;;;10.76;66.94;100001.53;1718855;82;21211;-59
2021/04/16 05:37:30;;;;;;;5.85;2.67;;;;;;;10.74;67.05;99995.58;1701764;82;21220;-59
2021/04/16 05:39:58;;;;;;;5.85;2.95;;;;;;;10.73;67.22;100004.91;1722902;82;21228;-59
2021/04/16 05:42:25;;;;;;;6.95;3.00;;;;;;;10.67;67.30;99999.68;1698703;82;21255;-57
2021/04/16 05:44:54;;;;;;;5.28;2.70;;;;;;;10.69;67.44;100004.81;1723969;81;21186;-59
2021/04/16 05:47:23;;;;;;;8.05;3.50;;;;;;;10.74;67.31;100001.30;1723000;82;21273;-59
2021/04/16 05:49:51;;;;;;;4.15;2.05;;;;;;;10.75;67.55;100004.30;1729764;81;21197;-59
2021/04/16 05:52:18;;;;;;;9.00;3.67;;;;;;;10.73;67.71;100004.42;1710511;83;21188;-58
2021/04/16 05:54:46;;;;;;;6.58;3.62;;;;;;;10.71;68.00;100009.48;1717512;82;21208;-60
2021/04/16 05:57:14;;;;;;;6.25;3.33;;;;;;;10.69;68.21;100006.13;1720106;82;21204;-61
2021/04/16 05:59:43;;;;;;;6.72;3.15;;;;;;;10.65;68.34;100006.06;1721416;82;21129;-64
2021/04/16 06:02:34;;;;;;;6.67;3.65;;;;;;;10.63;68.35;100002.73;1721976;82;21631;-64
2021/04/16 06:05:04;;;;;;;6.37;3.55;;;;;;;10.62;68.57;100001.88;1717487;82;21164;-57
2021/04/16 06:07:31;;;;;;;7.15;3.05;;;;;;;10.63;68.48;100002.24;1701827;82;21235;-59
2021/04/16 06:10:01;;;;;;;6.60;3.50;;;;;;;10.65;68.38;100007.38;1718123;82;21192;-61
2021/04/16 06:12:29;;;;;;;6.05;3.02;;;;;;;10.67;68.23;100004.94;1721048;82;21133;-58
2021/04/16 06:14:56;;;;;;;5.87;3.58;;;;;;;10.69;68.58;100004.81;1697980;82;21141;-59
2021/04/16 06:17:23;;;;;;;5.35;2.77;;;;;;;10.67;68.30;100004.94;1712403;82;21123;-59
2021/04/16 06:19:50;;;;;;;8.03;4.37;;;;;;;10.60;68.40;100006.45;1701170;82;21907;-59
2021/04/16 06:22:19;;;;;;;7.30;3.85;;;;;;;10.56;68.55;100003.25;1720609;81;21173;-59
2021/04/16 06:24:48;;;;;;;8.08;4.37;;;;;;;10.54;68.78;100003.88;1723839;82;21153;-59
2021/04/16 06:27:16;;;;;;;7.50;4.85;;;;;;;10.56;69.03;100004.56;1699691;82;21666;-59
2021/04/16 06:29:43;;;;;;;9.48;4.90;;;;;;;10.55;68.88;100005.52;1698721;82;21203;-59
2021/04/16 06:32:14;;;;;;;7.12;3.92;;;;;;;10.55;68.82;100012.09;1702325;82;21237;-60
2021/04/16 06:34:41;;;;;;;9.70;5.12;;;;;;;10.63;68.75;100012.77;1703697;82;21244;-59
2021/04/16 06:37:09;;;;;;;7.08;4.25;;;;;;;10.74;68.37;100017.09;1716240;82;21248;-58
2021/04/16 06:39:37;;;;;;;9.75;4.95;;;;;;;10.77;67.86;100021.59;1723321;82;21176;-59
2021/04/16 06:42:18;;;;;;;7.30;4.40;;;;;;;10.81;67.96;100025.28;1722919;82;21225;-58
2021/04/16 06:44:46;;;;;;;7.45;4.17;;;;;;;10.82;67.91;100023.84;1729230;80;21236;-60
2021/04/16 06:47:41;;;;;;;8.28;5.08;;;;;;;10.83;67.76;100020.25;1716161;82;21220;-59
2021/04/16 06:50:12;;;;;;;7.42;4.00;;;;;;;10.81;67.86;100026.60;1698789;82;21224;-59
2021/04/16 06:52:50;;;;;;;7.22;4.12;;;;;;;10.75;67.22;100025.34;1696092;82;21140;-57
2021/04/16 06:55:51;;;;;;;6.58;3.58;;;;;;;10.69;67.42;100026.72;1719700;82;21128;-59
2021/04/16 06:58:26;;;;;;;7.83;4.47;;;;;;;10.67;67.22;100025.17;1695427;82;21554;-59
2021/04/16 07:01:26;;;;;;;8.08;4.20;;;;;;;10.60;67.53;100027.00;1720424;82;21220;-58
2021/04/16 07:04:38;;;;;;;9.88;4.80;;;;;;;10.65;67.53;100033.20;1716976;82;21216;-58
2021/04/16 07:07:25;;;;;;;7.58;3.85;;;;;;;10.71;67.35;100027.91;1671443;84;21232;-58
2021/04/16 07:10:04;;;;;;;6.28;3.27;;;;;;;10.75;67.27;100031.44;1624014;86;21275;-59
2021/04/16 07:12:33;;;;;;;6.85;4.20;;;;;;;10.81;67.49;100029.23;1668959;85;21264;-58
2021/04/16 07:15:06;;;;;;;6.65;3.95;;;;;;;10.83;67.49;100036.53;1636016;86;21233;-58
2021/04/16 07:17:42;;;;;;;8.23;4.03;;;;;;;10.83;67.17;100032.09;1675101;85;21238;-58
2021/04/16 07:20:11;;;;;;;;;;;;;;;10.79;67.50;100034.63;1647448;86;21201;-57
2021/04/16 07:22:43;;;;;;;6.42;4.20;;;;;;;10.75;67.88;100030.61;1651704;85;20305;-57
2021/04/16 07:25:38;;;;;;;8.28;4.67;;;;;;;10.70;67.99;100031.00;1650265;86;21288;-58
2021/04/16 07:28:16;;;;;;;6.92;4.20;;;;;;;10.73;67.62;100038.63;1622346;86;21239;-58
2021/04/16 07:30:49;;;;;;;6.55;3.47;;;;;;;10.73;67.85;100031.23;1645952;86;21217;-59
2021/04/16 07:33:39;;;;;;;7.92;4.17;;;;;;;10.81;67.62;100032.72;1639635;85;21241;-60
2021/04/16 07:36:21;;;;;;;7.72;4.28;;;;;;;11.00;68.00;100036.38;1674866;84;21209;-59
2021/04/16 07:39:02;;;;;;;9.10;5.10;;;;;;;11.16;67.14;100031.41;1668880;83;21147;-55
2021/04/16 07:41:34;;;;;;;8.80;4.65;;;;;;;11.27;66.95;100034.44;1652059;85;21255;-59
2021/04/16 07:44:02;;;;;;;6.83;4.35;;;;;;;11.31;66.82;100032.72;1650840;85;21256;-57
2021/04/16 07:46:33;;;;;;;6.78;3.98;;;;;;;11.30;66.83;100032.36;1636363;86;21212;-56
2021/04/16 07:49:19;;;;;;;8.45;4.70;;;;;;;11.28;66.73;100038.25;1668449;83;21260;-56
2021/04/16 07:51:48;;;;;;;7.80;4.05;;;;;;;11.23;66.46;100036.51;1670687;85;21383;-58
2021/04/16 07:54:27;;;;;;;8.40;4.17;;;;;;;11.21;66.41;100040.23;1669657;83;21181;-57
2021/04/16 07:57:11;;;;;;;7.67;4.20;;;;;;;11.19;66.77;100041.68;1667996;83;21239;-56
2021/04/16 08:00:03;;;;;;;7.05;4.00;;;;;;;11.31;66.99;100039.77;1664609;84;21214;-57
2021/04/16 08:02:48;;;;;;;7.72;4.90;;;;;;;11.53;66.21;100039.53;1771812;79;28261;-56
2021/04/16 08:05:27;;;;;;;7.67;4.35;;;;;;;11.68;65.80;100041.28;1764118;80;21218;-57
2021/04/16 08:08:24;;;;;;;7.30;4.33;;;;;;;11.90;64.61;100041.95;1732419;80;21152;-56
2021/04/16 08:11:07;;;;;;;7.50;4.33;;;;;;;11.87;64.54;100040.93;1754745;80;21230;-58
2021/04/16 08:13:39;;;;;;;6.72;3.83;;;;;;;11.81;64.57;100042.80;1762621;80;21183;-56
2021/04/16 08:16:15;;;;;;;6.45;4.12;;;;;;;11.67;64.04;100048.00;1730183;80;21242;-56
2021/04/16 08:19:25;;;;;;;7.47;4.17;;;;;;;11.55;64.61;100044.67;1760166;79;21681;-57
2021/04/16 08:22:15;;;;;;;6.67;3.42;;;;;;;11.53;65.07;100045.27;1760774;80;21214;-57
2021/04/16 08:25:08;;;;;;;6.12;3.45;;;;;;;11.41;65.34;100047.20;1743954;80;21219;-56
2021/04/16 08:27:53;;;;;;;7.60;4.03;;;;;;;11.41;65.33;100052.46;1737838;80;21219;-57
2021/04/16 08:30:42;;;;;;;6.60;3.70;;;;;;;11.47;65.40;100052.42;1732880;80;21195;-57
2021/04/16 08:33:24;;;;;;;5.85;3.42;;;;;;;11.51;65.85;100051.98;1755146;80;21195;-56
2021/04/16 08:36:18;;;;;;;6.40;3.47;;;;;;;11.56;65.28;100051.59;1758324;80;21199;-57
2021/04/16 08:39:09;;;;;;;6.53;4.05;;;;;;;11.57;64.89;100052.44;1741791;80;21285;-57
2021/04/16 08:41:51;;;;;;;7.97;4.20;;;;;;;11.53;64.84;100054.03;1729885;80;21147;-57
2021/04/16 08:44:19;;;;;;;7.55;4.12;;;;;;;11.49;64.67;100051.30;1760646;80;21180;-56
2021/04/16 08:46:50;;;;;;;8.43;5.28;;;;;;;11.45;65.19;100055.69;1759271;80;21159;-56
2021/04/16 08:49:31;;;;;;;6.70;3.70;;;;;;;11.43;65.73;100055.82;1741895;80;21234;-58
2021/04/16 08:52:07;;;;;;;7.75;4.62;;;;;;;11.37;65.58;100059.48;1758567;80;21186;-57
2021/04/16 08:54:35;;;;;;;7.47;3.72;;;;;;;11.30;65.90;100053.92;1730520;80;21152;-57
2021/04/16 08:57:17;;;;;;;7.97;3.67;;;;;;;11.37;65.98;100055.03;1761748;80;21606;-58
2021/04/16 08:59:56;;;;;;;6.40;4.10;;;;;;;11.48;65.67;100057.56;1767206;80;21246;-57
2021/04/16 09:02:46;;;;;;;8.65;4.00;;;;;;;11.52;65.02;100056.30;1719754;80;21223;-57
2021/04/16 09:05:27;;;;;;;8.73;4.53;;;;;;;11.55;65.20;100060.94;1752170;80;21211;-57
2021/04/16 09:08:23;;;;;;;8.08;4.50;;;;;;;11.59;65.28;100059.72;1749673;80;21426;-58
2021/04/16 09:10:56;;;;;;;6.45;3.60;;;;;;;11.62;65.01;100060.77;1692599;83;21847;-58
2021/04/16 09:13:49;;;;;;;6.45;4.05;;;;;;;11.62;64.76;100064.72;1692433;84;21203;-59
2021/04/16 09:16:23;;;;;;;6.43;4.23;;;;;;;11.61;64.56;100063.86;1693754;83;21202;-56
2021/04/16 09:18:54;;;;;;;7.35;4.40;;;;;;;11.62;64.96;100062.91;1681301;83;21931;-57
2021/04/16 09:21:29;;;;;;;7.10;3.92;;;;;;;11.66;65.43;100061.64;1689360;83;21246;-57
2021/04/16 09:24:08;;;;;;;7.20;3.98;;;;;;;11.73;65.16;100070.33;1692647;82;21598;-57
2021/04/16 09:26:51;;;;;;;6.35;3.52;;;;;;;11.84;64.73;100060.98;1697015;82;21207;-57
2021/04/16 09:29:37;;;;;;;6.87;3.95;;;;;;;11.92;64.35;100063.78;1666241;83;21207;-57
2021/04/16 09:32:35;;;;;;;10.70;4.62;;;;;;;11.96;63.96;100062.52;1667240;84;21586;-56
2021/04/16 09:35:28;;;;;;;6.62;4.35;;;;;;;11.98;63.98;100060.57;1683702;83;21220;-56
2021/04/16 09:38:25;;;;;;;6.70;4.33;;;;;;;11.99;63.61;100071.47;1692905;83;21242;-56
2021/04/16 09:41:23;;;;;;;8.75;4.50;;;;;;;11.98;63.47;100066.34;1695005;82;21268;-57
2021/04/16 09:43:54;;;;;;;7.80;4.37;;;;;;;11.97;63.47;100064.20;1657451;84;21680;-57
2021/04/16 09:46:39;;;;;;;9.18;4.08;;;;;;;11.98;63.47;100066.34;1694465;83;21266;-57
2021/04/16 09:49:39;;;;;;;8.93;3.80;;;;;;;11.94;63.40;100064.47;1689996;83;21173;-56
2021/04/16 09:52:37;;;;;;;6.42;3.65;;;;;;;11.95;63.55;100060.02;1684875;83;21205;-58
2021/04/16 09:55:59;;;;;;;6.75;3.35;;;;;;;11.94;63.89;100056.56;1687900;83;21500;-57
2021/04/16 09:58:38;;;;;;;6.70;3.62;;;;;;;12.02;64.00;100060.66;1685866;84;23555;-57
2021/04/16 10:01:10;;;;;;;6.72;3.87;;;;;;;12.11;63.36;100060.78;1691666;83;21308;-57
2021/04/16 10:03:55;;;;;;;6.62;3.65;;;;;;;12.07;63.59;100059.75;1695334;83;21589;-58
2021/04/16 10:06:39;;;;;;;7.50;3.70;;;;;;;12.08;64.17;100067.98;1663304;84;21218;-59
2021/04/16 10:09:24;;;;;;;5.28;3.37;;;;;;;12.07;64.58;100058.92;1651753;84;21849;-56
2021/04/16 10:12:02;;;;;;;5.58;3.20;;;;;;;12.07;64.51;100061.56;1682253;83;23295;-58
2021/04/16 10:14:37;;;;;;;8.00;4.08;;;;;;;12.03;63.69;100063.62;1684525;83;22054;-60
2021/04/16 10:17:18;;;;;;;8.80;5.28;;;;;;;12.00;63.92;100065.70;1653132;83;21208;-59
2021/04/16 10:19:53;;;;;;;9.70;5.47;;;;;;;11.94;64.60;100059.20;1683402;83;21630;-59
2021/04/16 10:22:30;;;;;;;10.55;5.30;;;;;;;11.96;64.88;100062.52;1652222;83;21168;-58
2021/04/16 10:33:08;;;;;;;5.92;3.08;;;;;;;12.23;65.12;100063.11;1874987;75;23028;-58
2021/04/16 12:41:02;;;;;;;9.08;5.30;;;;;;;11.88;64.54;100061.89;1788476;78;21127;-59
2021/04/16 12:43:30;;;;;;;6.85;4.67;;;;;;;11.84;64.85;100067.07;1777949;78;21252;-58
2021/04/16 12:46:00;;;;;;;7.87;4.12;;;;;;;11.82;64.89;100066.39;1777930;78;21836;-58
2021/04/16 12:48:27;;;;;;;8.83;4.72;;;;;;;11.87;65.10;100071.25;1787642;78;21236;-58
2021/04/16 12:50:55;;;;;;;7.97;5.30;;;;;;;11.93;65.45;100065.43;1782762;79;21207;-58
2021/04/16 12:53:22;;;;;;;8.45;4.65;;;;;;;11.98;65.20;100067.66;1765283;79;21598;-58
2021/04/16 12:55:50;;;;;;;8.48;4.97;;;;;;;12.02;65.22;100063.75;1765492;79;21615;-58
2021/04/16 12:58:28;;;;;;;9.10;4.92;;;;;;;12.00;65.33;100065.24;1786945;78;21207;-58
2021/04/16 13:00:57;;;;;;;9.80;5.53;;;;;;;11.97;65.37;100058.92;1752978;79;21144;-57
2021/04/16 13:03:38;;;;;;;10.72;6.65;;;;;;;11.94;65.41;100067.11;1802914;78;21447;-57
2021/04/16 13:06:23;;;;;;;7.72;5.08;;;;;;;11.91;65.71;100062.11;1765979;80;21183;-57
2021/04/16 13:08:51;;;;;;;9.03;4.90;;;;;;;11.91;66.25;100064.75;1780559;78;21431;-57
2021/04/16 13:11:19;;;;;;;10.00;5.70;;;;;;;11.92;66.07;100063.78;1776354;78;21261;-57
2021/04/16 13:13:48;;;;;;;10.48;5.92;;;;;;;11.94;65.87;100064.47;1783766;78;21182;-57
2021/04/16 13:16:15;;;;;;;10.35;6.50;;;;;;;11.96;66.11;100070.43;1778686;80;21179;-56
2021/04/16 13:18:47;;;;;;;10.88;6.62;;;;;;;11.96;66.28;100070.43;1798527;77;21160;-59
2021/04/16 13:21:32;;;;;;;9.23;5.95;;;;;;;11.93;66.48;100069.39;1795721;79;21171;-55
2021/04/16 13:24:00;;;;;;;10.82;7.22;;;;;;;11.90;66.72;100074.44;1771919;79;21234;-57
2021/04/16 13:26:27;;;;;;;9.83;6.87;;;;;;;11.85;66.61;100070.06;1797858;79;21203;-57
2021/04/16 13:28:56;;;;;;;9.98;6.55;;;;;;;11.80;67.08;100074.07;1795304;79;21115;-57
2021/04/16 13:31:25;;;;;;;16.12;6.53;;;;;;;11.76;67.12;100072.70;1793459;79;21126;-58
2021/04/16 13:33:53;;;;;;;11.20;6.33;;;;;;;11.74;67.12;100075.96;1784910;79;21098;-59
2021/04/16 13:36:24;;;;;;;12.95;6.17;;;;;;;11.80;67.07;100072.75;1808358;78;21411;-59
2021/04/16 13:38:52;;;;;;;9.98;5.95;;;;;;;11.82;66.97;100071.66;1752698;78;21559;-59
2021/04/16 13:41:20;;;;;;;11.50;7.40;;;;;;;11.79;67.22;100071.11;1806704;78;21140;-60
2021/04/16 13:43:51;;;;;;;10.85;7.03;;;;;;;11.78;67.35;100069.42;1776717;78;21177;-59
2021/04/16 13:46:23;;;;;;;11.90;6.72;;;;;;;11.78;67.44;100066.30;1782096;78;21220;-58
2021/04/16 13:48:53;;;;;;;11.35;6.95;;;;;;;11.75;67.44;100060.01;1805919;78;21364;-58
2021/04/16 13:51:23;;;;;;;12.88;7.37;;;;;;;11.71;67.50;100066.52;1776479;78;21140;-59
2021/04/16 13:53:50;;;;;;;11.90;7.10;;;;;;;11.63;67.44;100071.17;1779620;80;21219;-57
2021/04/16 13:56:18;;;;;;;10.32;6.37;;;;;;;11.59;67.75;100072.89;1808113;78;21196;-57
2021/04/16 13:58:46;;;;;;;11.28;6.62;;;;;;;11.62;67.80;100083.16;1811150;78;21200;-55
2021/04/16 14:01:15;;;;;;;10.40;5.92;;;;;;;11.75;67.90;100081.56;1780104;78;21491;-55
2021/04/16 14:03:47;;;;;;;11.68;6.60;;;;;;;11.84;68.07;100084.20;1789596;79;21207;-54
2021/04/16 14:06:24;;;;;;;11.90;7.58;;;;;;;11.92;68.22;100082.24;1772291;80;21222;-55
2021/04/16 14:09:10;;;;;;;11.80;6.95;;;;;;;11.98;67.77;100080.34;1804170;78;21199;-55
2021/04/16 14:11:37;;;;;;;13.48;7.50;;;;;;;11.99;67.40;100083.34;1807329;78;21199;-55